Time;durP1;ratioP1;P1;durP2;ratioP2;P2;SDS_P1;SDS_P2;PMS_P1;PMS_P2;Temp;Humidity;BMP_temperature;BMP_pressure;BME280_temperature;BME280_humidity;BME280_pressure;Samples;Min_cycle;Max_cycle;Signal;HPM_P1;HPM_P2
2021/01/15 00:02:03;;;;;;;15.90;10.67;;;;;;;-4.78;70.53;99219.96;1670734;83;21164;-86
2021/01/15 00:05:04;;;;;;;19.50;11.13;;;;;;;-4.71;70.37;99219.37;1640166;84;21213;-89
2021/01/15 00:07:32;;;;;;;22.30;11.50;;;;;;;-4.68;70.37;99227.39;1635440;86;21201;-87
2021/01/15 00:09:59;;;;;;;19.47;12.40;;;;;;;-4.71;69.95;99223.72;1642509;86;21204;-87
2021/01/15 00:12:26;;;;;;;20.30;12.70;;;;;;;-4.75;70.36;99237.91;1646931;86;21235;-89
2021/01/15 00:14:53;;;;;;;15.00;11.07;;;;;;;-4.80;70.54;99238.27;1633709;86;21716;-90
2021/01/15 00:17:22;;;;;;;21.40;13.40;;;;;;;-4.75;70.65;99233.52;1636659;86;21197;-90
2021/01/15 00:19:53;;;;;;;16.20;10.00;;;;;;;-4.68;70.56;99235.19;1635991;86;21219;-87
2021/01/15 00:22:23;;;;;;;22.97;13.17;;;;;;;-4.63;70.43;99238.27;1640221;86;21200;-89
2021/01/15 00:24:50;;;;;;;22.57;13.67;;;;;;;-4.58;70.30;99232.22;1633647;86;21530;-89
2021/01/15 00:27:22;;;;;;;21.93;14.67;;;;;;;-4.56;70.49;99234.71;1630849;86;21636;-90
2021/01/15 00:29:50;;;;;;;19.87;12.33;;;;;;;-4.47;70.33;99235.30;1635305;86;21220;-89
2021/01/15 00:32:18;;;;;;;24.13;14.57;;;;;;;-4.43;70.29;99235.41;1631463;86;21404;-88
2021/01/15 00:34:46;;;;;;;23.00;12.87;;;;;;;-4.35;70.15;99230.91;1651011;85;21291;-88
2021/01/15 00:37:19;;;;;;;20.13;13.23;;;;;;;-4.34;70.07;99228.67;1698005;82;21097;-90
2021/01/15 00:39:46;;;;;;;19.10;13.47;;;;;;;-4.28;69.87;99233.87;1707535;83;21187;-86
2021/01/15 00:42:13;;;;;;;25.53;15.90;;;;;;;-4.28;69.92;99235.98;1683621;84;21286;-88
2021/01/15 00:44:45;;;;;;;22.37;13.37;;;;;;;-4.27;69.87;99241.56;1678965;85;21183;-89
2021/01/15 00:47:13;;;;;;;23.30;15.57;;;;;;;-4.24;69.80;99243.90;1697157;83;21182;-90
2021/01/15 00:49:42;;;;;;;17.83;10.53;;;;;;;-4.22;69.41;99246.39;1662706;84;21654;-90
2021/01/15 00:52:10;;;;;;;19.53;12.47;;;;;;;-4.27;69.07;99248.06;1669181;83;21312;-88
2021/01/15 00:54:38;;;;;;;22.50;13.93;;;;;;;-4.33;68.73;99244.16;1694662;83;21201;-88
2021/01/15 00:57:09;;;;;;;24.83;12.60;;;;;;;-4.41;68.76;99247.81;1697386;83;21201;-89
2021/01/15 00:59:57;;;;;;;20.33;11.60;;;;;;;-4.47;68.75;99247.48;1686079;84;21418;-89
2021/01/15 01:02:34;;;;;;;19.93;12.47;;;;;;;-4.50;68.92;99251.98;1695209;83;21550;-92
2021/01/15 01:05:11;;;;;;;19.33;11.20;;;;;;;-4.56;68.41;99260.27;1678627;84;21191;-87
2021/01/15 01:07:43;;;;;;;18.03;10.90;;;;;;;-4.62;68.44;99249.50;1620104;87;22451;-85
2021/01/15 01:10:14;;;;;;;17.33;10.63;;;;;;;-4.61;68.05;99260.27;1622752;87;21235;-86
2021/01/15 01:12:42;;;;;;;19.17;10.70;;;;;;;-4.68;67.94;99254.70;1621422;87;21362;-87
2021/01/15 01:15:15;;;;;;;17.43;10.80;;;;;;;-4.67;67.94;99255.52;1604233;87;21281;-86
2021/01/15 01:17:45;;;;;;;17.13;12.43;;;;;;;-4.73;68.36;99256.81;1591845;89;21274;-86
2021/01/15 01:20:13;;;;;;;14.50;9.27;;;;;;;-4.72;68.31;99257.18;1596404;89;21750;-90
2021/01/15 01:22:40;;;;;;;10.90;8.20;;;;;;;-5.49;68.20;99142.16;1594185;88;21661;-88
2021/01/15 01:25:09;;;;;;;17.73;10.17;;;;;;;-4.75;68.38;99265.20;1632826;87;21212;-87
2021/01/15 01:27:36;;;;;;;16.83;10.00;;;;;;;-4.78;68.18;99262.86;1622850;88;21278;-84
2021/01/15 01:30:04;;;;;;;16.97;11.13;;;;;;;-4.80;68.27;99259.52;1621896;87;21186;-86
2021/01/15 01:32:32;;;;;;;13.37;8.90;;;;;;;-4.81;68.27;99260.48;1575131;87;21161;-92
2021/01/15 01:35:00;;;;;;;17.97;10.13;;;;;;;-4.83;68.37;99261.07;1553762;90;21160;-91
2021/01/15 01:37:44;;;;;;;20.43;10.73;;;;;;;-4.85;68.61;99274.66;1622867;87;21196;-86
2021/01/15 01:40:12;;;;;;;17.27;10.47;;;;;;;-4.86;68.37;99273.80;1613802;87;21381;-85
2021/01/15 01:42:39;;;;;;;16.60;10.43;;;;;;;-4.85;68.40;99277.26;1621994;88;21220;-87
2021/01/15 01:45:08;;;;;;;17.73;10.40;;;;;;;-4.87;68.26;99268.27;1624960;86;21674;-85
2021/01/15 01:47:35;;;;;;;17.00;9.83;;;;;;;-4.84;68.10;99272.40;1625053;88;21366;-87
2021/01/15 01:50:05;;;;;;;16.27;10.57;;;;;;;-4.84;67.90;99278.45;1594654;89;21235;-86
2021/01/15 01:52:32;;;;;;;20.63;11.57;;;;;;;-4.82;68.09;99278.30;1570117;90;21533;-87
2021/01/15 01:55:00;;;;;;;16.33;11.03;;;;;;;-4.83;67.95;99281.39;1595630;88;21243;-87
2021/01/15 01:59:14;;;;;;;;;;;;;;;;;;;;;
2021/01/15 02:05:43;;;;;;;17.30;9.53;;;;;;;-4.87;69.19;99271.35;1703831;76;22315;-93
2021/01/15 02:08:16;;;;;;;22.63;10.50;;;;;;;-4.94;69.12;99270.48;1749545;80;21149;-91
2021/01/15 02:11:09;;;;;;;16.27;9.07;;;;;;;-4.96;69.32;99280.17;1645401;83;21187;-93
2021/01/15 02:14:51;;;;;;;16.97;10.83;;;;;;;-4.96;69.36;99280.17;1715165;81;21246;-93
2021/01/15 02:17:26;;;;;;;17.07;11.27;;;;;;;-5.01;69.64;99295.76;1720586;81;21182;-94
2021/01/15 02:20:44;;;;;;;16.52;11.08;;;;;;;-5.00;69.63;99284.44;1717404;81;21818;-92
2021/01/15 02:23:39;;;;;;;13.67;8.97;;;;;;;-5.00;69.60;99281.36;1724986;81;21198;-92
2021/01/15 02:26:51;;;;;;;17.50;9.83;;;;;;;-4.96;69.50;99286.67;1711662;81;22080;-93
2021/01/15 02:29:27;;;;;;;15.50;9.97;;;;;;;-4.93;69.25;99290.36;1717178;81;21206;-92
2021/01/15 02:32:24;;;;;;;15.93;9.20;;;;;;;-4.99;68.63;99297.77;1752720;77;21157;-93
2021/01/15 02:35:21;;;;;;;15.90;8.98;;;;;;;-5.35;69.02;99241.11;1738062;76;21160;-92
2021/01/15 02:38:25;;;;;;;9.70;6.45;;;;;;;-5.10;69.18;99293.39;1728265;79;21177;-90
2021/01/15 02:41:23;;;;;;;12.87;8.13;;;;;;;-5.13;69.21;99291.02;1759628;78;21133;-93
2021/01/15 02:43:57;;;;;;;14.80;9.23;;;;;;;-5.17;69.03;99301.28;1738992;79;21177;-91
2021/01/15 02:46:53;;;;;;;17.13;9.10;;;;;;;-5.25;68.97;99294.05;1757718;78;21126;-92
2021/01/15 02:49:29;;;;;;;15.63;9.20;;;;;;;-5.28;69.34;99305.95;1769631;76;21137;-91
2021/01/15 02:52:09;;;;;;;12.07;8.73;;;;;;;-5.27;69.15;99315.42;1748274;78;21114;-94
2021/01/15 02:54:51;;;;;;;16.73;10.50;;;;;;;-5.26;69.13;99313.16;1762503;80;21149;-93
2021/01/15 02:57:36;;;;;;;12.63;8.37;;;;;;;-5.25;69.24;99317.91;1732849;81;21090;-93
2021/01/15 03:07:16;;;;;;;15.70;8.80;;;;;;;-5.24;68.60;99320.85;1707056;80;21066;-91
2021/01/15 03:10:15;;;;;;;;;;;;;;;-5.27;68.16;99323.22;1721154;80;21190;-95
2021/01/15 03:12:51;;;;;;;14.20;7.90;;;;;;;-5.35;67.63;99327.67;1686161;83;20399;-95
2021/01/15 03:15:35;;;;;;;12.83;8.37;;;;;;;-5.53;67.44;99322.51;1711636;82;21589;-94
2021/01/15 03:18:07;;;;;;;18.93;8.73;;;;;;;-5.55;68.00;99332.18;1648393;82;21230;-94
2021/01/15 03:20:37;;;;;;;14.43;7.77;;;;;;;-5.60;68.30;99324.70;1692502;83;21388;-94
2021/01/15 03:23:09;;;;;;;10.87;7.23;;;;;;;-5.57;68.10;99329.69;1717252;83;21203;-93
2021/01/15 03:25:41;;;;;;;10.77;7.53;;;;;;;-5.56;67.81;99337.00;1695128;82;21199;-94
2021/01/15 03:28:14;;;;;;;11.37;7.93;;;;;;;-5.61;67.44;99332.15;1718950;82;21264;-95
2021/01/15 03:30:48;;;;;;;13.40;7.90;;;;;;;-5.69;67.20;99336.59;1691984;83;21203;-94
2021/01/15 03:33:50;;;;;;;14.63;7.70;;;;;;;-5.75;67.14;99338.78;1685710;83;21209;-89
2021/01/15 03:36:17;;;;;;;;;;;;;;;-5.79;66.96;99339.47;1714204;81;21109;-88
2021/01/15 03:38:44;;;;;;;14.20;7.67;;;;;;;-5.80;67.22;99338.27;1717072;82;20370;-88
2021/01/15 03:41:10;;;;;;;13.47;8.23;;;;;;;-5.88;67.70;99338.37;1713883;82;21196;-86
2021/01/15 03:43:39;;;;;;;10.13;7.80;;;;;;;-5.85;67.68;99342.50;1715415;82;21221;-86
2021/01/15 03:46:06;;;;;;;11.80;6.43;;;;;;;-5.82;67.87;99353.13;1715734;82;21143;-87
2021/01/15 03:48:34;;;;;;;12.60;8.00;;;;;;;-5.81;67.72;99350.91;1711086;82;21221;-85
2021/01/15 03:51:02;;;;;;;16.50;8.60;;;;;;;-5.86;67.82;99352.52;1712110;82;21669;-87
2021/01/15 03:53:28;;;;;;;11.33;7.60;;;;;;;-5.88;67.82;99350.49;1706798;82;21194;-84
2021/01/15 03:55:55;;;;;;;12.70;7.60;;;;;;;-5.88;67.97;99356.53;1700901;82;21247;-86
2021/01/15 03:58:23;;;;;;;12.33;7.27;;;;;;;-5.88;68.12;99361.73;1709785;82;21286;-86
2021/01/15 04:00:50;;;;;;;13.47;7.93;;;;;;;-5.83;67.98;99360.57;1692362;82;21316;-86
2021/01/15 04:03:19;;;;;;;12.93;7.80;;;;;;;-5.90;67.82;99356.27;1707951;82;21481;-83
2021/01/15 04:05:46;;;;;;;14.37;8.73;;;;;;;-5.99;66.66;99357.78;1716570;81;21149;-87
2021/01/15 04:08:13;;;;;;;15.77;9.23;;;;;;;-6.07;66.97;99360.88;1734018;81;21211;-86
2021/01/15 04:11:34;;;;;;;13.32;9.70;;;;;;;-6.07;67.27;99354.40;1771433;77;29937;-86
2021/01/15 04:14:08;;;;;;;8.77;6.53;;;;;;;-5.92;66.90;99355.06;1666815;82;21723;-86
2021/01/15 04:16:35;;;;;;;10.73;7.10;;;;;;;-5.80;66.06;99357.30;1738662;80;21187;-83
2021/01/15 04:19:05;;;;;;;11.43;7.53;;;;;;;-5.90;65.89;99357.56;1717275;82;21200;-86
2021/01/15 04:21:32;;;;;;;8.73;6.47;;;;;;;-5.96;65.94;99363.22;1729499;81;21173;-85
2021/01/15 04:24:00;;;;;;;9.87;7.20;;;;;;;-6.01;65.93;99360.92;1736109;81;21671;-87
2021/01/15 04:26:27;;;;;;;18.03;8.87;;;;;;;-6.10;65.89;99361.59;1733869;81;21212;-85
2021/01/15 04:28:55;;;;;;;12.10;7.33;;;;;;;-6.18;66.33;99362.09;1679413;82;21221;-84
2021/01/15 04:31:21;;;;;;;10.20;5.33;;;;;;;-6.18;66.43;99362.09;1691046;83;21236;-86
2021/01/15 04:33:49;;;;;;;14.37;9.47;;;;;;;-6.20;66.52;99367.03;1678572;83;21226;-86
2021/01/15 04:36:19;;;;;;;11.30;7.07;;;;;;;-6.21;66.66;99367.52;1643010;85;21206;-85
2021/01/15 04:39:02;;;;;;;;;;;;;;;;;;;;;
2021/01/15 04:41:43;;;;;;;12.50;8.17;;;;;;;-6.20;67.27;99371.75;1826254;77;23071;-88
2021/01/15 04:44:11;;;;;;;16.03;9.77;;;;;;;-6.29;67.27;99384.89;1702802;81;22213;-88
2021/01/15 04:46:45;;;;;;;17.27;10.47;;;;;;;-6.35;67.68;99386.59;1720287;81;21211;-87
2021/01/15 04:49:13;;;;;;;18.30;9.97;;;;;;;-6.34;67.89;99397.81;1749481;81;21161;-88
2021/01/15 04:51:40;;;;;;;18.50;11.37;;;;;;;-6.30;67.82;99394.07;1729931;81;21247;-87
2021/01/15 04:54:10;;;;;;;18.43;10.53;;;;;;;-6.29;67.96;99396.56;1705053;82;21227;-88
2021/01/15 04:56:50;;;;;;;20.17;11.13;;;;;;;-6.27;67.95;99401.66;1719603;81;21287;-86
2021/01/15 04:59:18;;;;;;;20.40;10.63;;;;;;;-6.28;67.62;99411.17;1735889;81;21333;-87
2021/01/15 05:01:46;;;;;;;15.77;9.43;;;;;;;-6.32;67.86;99408.91;1721750;82;21218;-87
2021/01/15 05:04:18;;;;;;;16.97;8.50;;;;;;;-6.34;67.52;99410.78;1721506;82;21180;-87
2021/01/15 05:06:49;;;;;;;15.30;7.83;;;;;;;-6.38;67.44;99415.81;1694542;82;21092;-87
2021/01/15 05:09:23;;;;;;;14.50;8.30;;;;;;;-6.35;67.39;99410.41;1673929;83;21167;-91
2021/01/15 05:11:51;;;;;;;13.53;8.37;;;;;;;-6.37;67.32;99411.80;1688081;83;21193;-87
2021/01/15 05:14:20;;;;;;;15.13;10.10;;;;;;;-6.35;67.42;99420.78;1695884;83;21212;-88
2021/01/15 05:16:49;;;;;;;10.77;7.33;;;;;;;-6.31;67.15;99416.59;1694003;83;21229;-87
2021/01/15 05:19:17;;;;;;;12.87;8.90;;;;;;;-6.28;66.51;99425.92;1693397;83;21229;-87
2021/01/15 05:21:50;;;;;;;13.13;8.33;;;;;;;-6.34;65.84;99415.49;1707994;83;21194;-88
2021/01/15 05:24:16;;;;;;;15.27;9.00;;;;;;;-6.44;65.37;99423.54;1689147;83;21824;-88
2021/01/15 05:26:44;;;;;;;13.53;6.77;;;;;;;-6.50;65.72;99426.08;1670480;84;21536;-89
2021/01/15 05:29:11;;;;;;;12.00;8.53;;;;;;;-6.56;65.79;99427.75;1705317;83;21448;-88
2021/01/15 05:31:59;;;;;;;8.87;6.00;;;;;;;-6.59;65.13;99439.64;1690831;85;21498;-87
2021/01/15 05:34:28;;;;;;;17.67;8.67;;;;;;;-6.67;64.81;99432.81;1657053;85;21714;-86
2021/01/15 05:36:55;;;;;;;14.97;7.77;;;;;;;-6.77;64.71;99446.84;1686979;84;21478;-86
2021/01/15 05:39:24;;;;;;;12.10;8.47;;;;;;;-6.87;65.22;99447.91;1685755;83;21776;-86
2021/01/15 05:42:01;;;;;;;12.07;8.33;;;;;;;-6.92;65.76;99446.08;1673624;83;21199;-86
2021/01/15 05:44:33;;;;;;;13.88;7.58;;;;;;;-6.89;65.74;99456.73;1634796;85;21317;-85
2021/01/15 05:47:00;;;;;;;14.27;8.67;;;;;;;-6.93;64.88;99450.91;1642410;85;21200;-84
2021/01/15 05:49:30;;;;;;;11.90;7.30;;;;;;;-6.92;65.45;99454.33;1635239;84;21215;-87
2021/01/15 05:52:07;;;;;;;11.97;7.77;;;;;;;-6.91;65.34;99453.38;1671029;84;21214;-85
2021/01/15 05:54:35;;;;;;;13.07;8.37;;;;;;;-6.91;65.13;99453.38;1643938;85;21262;-88
2021/01/15 05:57:06;;;;;;;11.80;7.07;;;;;;;-6.91;65.61;99455.52;1645566;85;21176;-91
2021/01/15 05:59:59;;;;;;;14.25;8.75;;;;;;;-6.86;65.88;99458.63;1673425;81;21308;31
2021/01/15 06:02:56;;;;;;;15.87;9.30;;;;;;;-6.80;65.62;99460.47;1689753;83;21597;-87
2021/01/15 06:05:24;;;;;;;13.07;8.13;;;;;;;-6.81;66.11;99457.52;1702762;82;21108;-89
2021/01/15 06:07:57;;;;;;;14.33;9.13;;;;;;;-6.81;65.81;99462.23;1697299;83;21164;-87
2021/01/15 06:10:26;;;;;;;19.00;9.60;;;;;;;-6.89;65.90;99462.73;1671000;84;21204;-90
2021/01/15 06:12:53;;;;;;;16.47;9.27;;;;;;;-6.96;66.08;99461.93;1667438;84;21206;-87
2021/01/15 06:15:24;;;;;;;13.17;9.63;;;;;;;-6.95;66.25;99468.76;1664275;84;21649;-87
2021/01/15 06:17:52;;;;;;;12.43;8.07;;;;;;;-6.96;66.34;99478.30;1643388;85;21316;-87
2021/01/15 06:20:23;;;;;;;18.40;9.43;;;;;;;-6.93;66.32;99478.11;1670149;83;21144;-92
2021/01/15 06:22:54;;;;;;;15.57;10.70;;;;;;;-6.91;66.37;99478.84;1645454;85;21407;-92
2021/01/15 06:25:40;;;;;;;14.37;9.53;;;;;;;-6.90;66.35;99489.56;1676205;84;21214;-94
2021/01/15 06:28:10;;;;;;;14.07;10.70;;;;;;;-6.89;66.46;99487.34;1665655;84;21575;-87
2021/01/15 06:30:42;;;;;;;13.27;8.80;;;;;;;-6.81;66.53;99480.38;1621370;86;21382;-88
2021/01/15 06:33:19;;;;;;;12.73;9.20;;;;;;;-6.83;66.09;99484.83;1667994;84;21179;-88
2021/01/15 06:35:49;;;;;;;14.40;8.28;;;;;;;-6.86;65.64;99485.84;1644051;83;21126;-87
2021/01/15 06:38:19;;;;;;;15.17;8.97;;;;;;;-6.90;65.58;99492.15;1608717;87;21199;-88
2021/01/15 06:40:54;;;;;;;14.37;8.40;;;;;;;-6.95;64.57;99496.81;1606175;87;21624;-85
2021/01/15 06:43:50;;;;;;;22.80;16.70;;;;;;;-6.97;63.45;99500.41;1795215;77;22769;-89
2021/01/15 06:46:23;;;;;;;13.63;9.03;;;;;;;-7.03;63.82;99513.29;1754065;80;21321;-86
2021/01/15 06:48:56;;;;;;;14.63;8.47;;;;;;;-7.00;63.53;99512.28;1774747;79;21191;-86
2021/01/15 06:51:24;;;;;;;18.33;9.10;;;;;;;-7.02;63.58;99520.15;1784510;78;21174;-84
2021/01/15 06:53:51;;;;;;;14.70;8.80;;;;;;;-6.95;63.74;99516.69;1769368;80;21208;-89
2021/01/15 06:56:19;;;;;;;15.50;8.37;;;;;;;-6.88;63.05;99511.49;1720026;81;21189;-87
2021/01/15 06:58:49;;;;;;;14.50;9.60;;;;;;;-6.85;63.23;99517.78;1715703;82;21196;-85
2021/01/15 07:01:38;;;;;;;14.33;7.93;;;;;;;-6.86;62.81;99527.77;1725556;82;21631;-87
2021/01/15 07:04:28;;;;;;;14.90;8.20;;;;;;;-6.82;62.52;99529.70;1746698;81;21634;-87
2021/01/15 07:07:03;;;;;;;16.30;8.20;;;;;;;-6.83;62.47;99528.06;1707547;79;21109;-86
2021/01/15 07:09:30;;;;;;;13.83;8.60;;;;;;;-6.97;62.23;99532.80;1662406;85;21226;-86
2021/01/15 07:11:57;;;;;;;10.87;7.07;;;;;;;-7.07;62.33;99534.66;1692974;84;21248;-90
2021/01/15 07:14:27;;;;;;;12.07;7.67;;;;;;;-7.06;62.71;99542.00;1663148;84;21247;-86
2021/01/15 07:16:57;;;;;;;16.03;9.60;;;;;;;-7.02;62.75;99536.98;1661561;84;22678;-87
2021/01/15 07:19:37;;;;;;;13.63;9.17;;;;;;;-6.96;63.05;99540.95;1670664;83;21201;-86
2021/01/15 07:22:09;;;;;;;13.37;8.63;;;;;;;-6.90;63.71;99547.86;1663423;85;21199;-85
2021/01/15 07:24:41;;;;;;;13.67;9.57;;;;;;;-6.84;64.16;99550.52;1707709;83;21198;-87
2021/01/15 07:27:15;;;;;;;20.23;10.50;;;;;;;-6.78;64.03;99572.19;1704744;83;21898;-86
2021/01/15 07:29:44;;;;;;;16.27;9.37;;;;;;;-6.77;64.12;99563.47;1689099;84;21198;-86
2021/01/15 07:32:27;;;;;;;17.03;9.40;;;;;;;-6.73;63.14;99556.34;1705754;84;21147;-83
2021/01/15 07:34:58;;;;;;;20.10;11.87;;;;;;;-6.71;62.83;99570.02;1703036;81;21261;-85
2021/01/15 07:37:31;;;;;;;19.37;11.03;;;;;;;-6.69;62.33;99566.40;1710854;82;21107;-86
2021/01/15 07:40:19;;;;;;;18.37;9.73;;;;;;;-6.68;62.32;99576.33;1707532;82;21293;-85
2021/01/15 07:42:56;;;;;;;21.55;11.85;;;;;;;-6.62;62.21;99583.70;1719714;80;21298;-86
2021/01/15 07:45:32;;;;;;;18.73;11.85;;;;;;;-6.65;62.11;99586.48;1710836;81;21130;-86
2021/01/15 07:48:05;;;;;;;24.43;11.43;;;;;;;-6.70;62.22;99588.55;1709138;82;21293;-85
2021/01/15 07:50:39;;;;;;;20.40;12.57;;;;;;;-6.75;62.28;99594.00;1705638;83;21333;-86
2021/01/15 07:53:22;;;;;;;15.60;9.30;;;;;;;-6.79;62.51;99593.02;1709630;82;21344;-83
2021/01/15 07:55:59;;;;;;;15.40;8.53;;;;;;;-6.77;62.67;99593.75;1706893;83;21220;-85
2021/01/15 07:58:41;;;;;;;13.43;7.83;;;;;;;-6.78;62.34;99593.36;1706157;83;21304;-87
2021/01/15 08:01:16;;;;;;;17.00;8.47;;;;;;;-6.80;62.35;99603.00;1696705;82;21170;-88
2021/01/15 08:03:58;;;;;;;17.17;8.97;;;;;;;-6.88;61.93;99600.89;1700722;84;21202;-88
2021/01/15 08:06:28;;;;;;;16.43;8.13;;;;;;;-7.01;61.03;99602.10;1704463;81;21274;-88
2021/01/15 08:09:05;;;;;;;14.97;9.40;;;;;;;-7.13;61.76;99608.88;1704409;83;21146;-85
2021/01/15 08:11:35;;;;;;;16.83;8.93;;;;;;;-7.17;61.77;99620.83;1705944;83;21329;-87
2021/01/15 08:14:23;;;;;;;15.03;8.63;;;;;;;-7.22;61.73;99621.09;1688771;82;21232;-89
2021/01/15 08:16:52;;;;;;;16.37;8.10;;;;;;;-7.21;61.37;99614.14;1674078;84;21187;-87
2021/01/15 08:19:25;;;;;;;12.10;6.77;;;;;;;-7.17;60.60;99627.30;1675449;82;22213;-86
2021/01/15 08:21:53;;;;;;;10.47;6.23;;;;;;;-7.19;60.68;99633.04;1688571;83;21336;-88
2021/01/15 08:24:23;;;;;;;11.33;7.67;;;;;;;-7.20;60.89;99630.06;1685492;83;21224;-84
2021/01/15 08:26:55;;;;;;;11.90;8.97;;;;;;;-7.24;60.58;99634.13;1671777;84;21180;-85
2021/01/15 08:29:26;;;;;;;9.93;7.97;;;;;;;-7.32;60.75;99642.83;1684959;83;21203;-86
2021/01/15 08:31:57;;;;;;;14.20;7.60;;;;;;;-7.38;61.13;99635.87;1651128;85;21263;-86
2021/01/15 08:34:34;;;;;;;14.40;9.67;;;;;;;-7.37;61.42;99641.44;1704261;83;21306;-89
2021/01/15 08:37:27;;;;;;;12.60;7.73;;;;;;;-7.33;61.08;99639.84;1763392;78;23650;-86
2021/01/15 08:39:58;;;;;;;;;;;;;;;-7.36;61.14;99641.34;1723412;82;21171;-88
2021/01/15 08:42:30;;;;;;;9.93;6.17;;;;;;;-7.37;61.27;99638.84;1703898;83;20525;-87
2021/01/15 08:44:57;;;;;;;14.77;7.37;;;;;;;-7.40;60.47;99643.75;1704224;83;21167;-87
2021/01/15 08:47:25;;;;;;;11.87;7.23;;;;;;;-7.36;60.77;99643.94;1727185;81;21272;-86
2021/01/15 08:49:56;;;;;;;11.77;6.93;;;;;;;-7.29;61.14;99642.65;1724131;81;21361;-89
2021/01/15 08:52:32;;;;;;;14.40;8.57;;;;;;;-7.16;61.94;99636.25;1719988;83;22105;-86
2021/01/15 08:55:03;;;;;;;17.87;7.23;;;;;;;-7.04;61.31;99633.40;1721510;82;21215;-90
2021/01/15 08:57:31;;;;;;;12.33;7.73;;;;;;;-6.94;60.46;99641.44;1725376;82;21194;-85
2021/01/15 09:00:16;;;;;;;12.27;7.40;;;;;;;-6.97;60.08;99641.14;1723596;81;21161;-88
2021/01/15 09:02:46;;;;;;;13.47;8.67;;;;;;;-6.95;59.78;99643.20;1726729;83;21186;-86
2021/01/15 09:05:19;;;;;;;13.77;7.37;;;;;;;-6.88;59.86;99651.41;1683380;83;21760;-86
2021/01/15 09:07:53;;;;;;;12.33;7.97;;;;;;;-6.84;60.15;99650.30;1721384;82;21171;-88
2021/01/15 09:10:52;;;;;;;16.07;8.67;;;;;;;-6.76;59.50;99642.90;1846475;77;24173;-86
2021/01/15 09:13:23;;;;;;;15.10;9.13;;;;;;;-6.74;59.18;99646.66;1734051;81;21159;-87
2021/01/15 09:15:51;;;;;;;16.43;6.67;;;;;;;-6.69;59.17;99650.64;1690464;83;21843;-87
2021/01/15 09:18:18;;;;;;;14.83;7.87;;;;;;;-6.83;58.37;99649.38;1703922;82;21187;-87
2021/01/15 09:20:47;;;;;;;12.83;8.47;;;;;;;-6.92;58.78;99649.94;1667534;81;21512;-86
2021/01/15 09:23:24;;;;;;;16.90;11.18;;;;;;;-6.98;59.18;99649.86;1745204;81;21688;-88
2021/01/15 09:25:52;;;;;;;19.80;10.20;;;;;;;-6.97;59.67;99655.86;1741808;81;21871;-86
2021/01/15 09:28:19;;;;;;;15.23;9.47;;;;;;;-6.96;59.63;99659.66;1732120;81;21152;-86
2021/01/15 09:31:05;;;;;;;17.43;10.27;;;;;;;-6.93;59.25;99660.78;1726039;82;21275;-85
2021/01/15 09:33:52;;;;;;;17.60;9.20;;;;;;;-6.93;59.19;99667.26;1715950;82;21221;-86
2021/01/15 09:36:27;;;;;;;16.97;10.17;;;;;;;-6.94;58.91;99669.47;1680154;81;21397;-86
2021/01/15 09:38:58;;;;;;;14.30;8.93;;;;;;;-6.89;58.95;99668.73;1641968;86;21222;-89
2021/01/15 09:41:25;;;;;;;16.90;10.90;;;;;;;-6.90;58.90;99674.82;1684548;84;21821;-89
2021/01/15 09:43:55;;;;;;;17.07;10.37;;;;;;;-6.90;58.60;99666.23;1689902;84;21222;-86
2021/01/15 09:46:28;;;;;;;14.73;8.57;;;;;;;-6.89;58.40;99669.20;1680177;84;21602;-85
2021/01/15 09:48:57;;;;;;;14.43;9.13;;;;;;;-6.84;58.13;99661.95;1694547;83;21223;-86
2021/01/15 09:51:27;;;;;;;20.63;10.07;;;;;;;-6.88;57.39;99665.66;1692779;83;21188;-86
2021/01/15 09:53:56;;;;;;;14.03;8.30;;;;;;;-6.93;57.62;99667.70;1643761;85;21244;-86
2021/01/15 09:56:40;;;;;;;16.30;9.70;;;;;;;-6.95;58.14;99673.44;1686376;84;21172;-86
2021/01/15 09:59:05;;;;;;;16.70;10.00;;;;;;;-6.99;57.81;99673.26;1673684;83;21160;-84
2021/01/15 10:01:33;;;;;;;17.43;10.50;;;;;;;-7.03;58.10;99676.50;1657320;85;21208;-85
2021/01/15 10:04:00;;;;;;;13.30;9.57;;;;;;;-7.07;58.17;99681.49;1667150;84;21689;-85
2021/01/15 10:06:32;;;;;;;17.00;10.70;;;;;;;-7.10;57.92;99682.52;1679292;82;21799;-87
2021/01/15 10:09:03;;;;;;;15.67;10.00;;;;;;;-7.11;58.18;99686.02;1650524;86;21222;-85
2021/01/15 10:11:34;;;;;;;14.87;9.77;;;;;;;-7.06;57.96;99689.66;1652311;85;21455;-84
2021/01/15 10:14:03;;;;;;;15.40;10.33;;;;;;;-6.97;58.21;99681.77;1641415;85;21791;-86
2021/01/15 10:16:34;;;;;;;19.43;10.83;;;;;;;-8.26;57.95;99471.59;1657341;85;21190;-85
2021/01/15 10:19:30;;;;;;;17.53;11.03;;;;;;;-8.47;57.43;99408.63;1808431;77;23211;-86
2021/01/15 10:21:57;;;;;;;14.23;7.47;;;;;;;-6.91;57.46;99671.88;1736252;80;21173;-86
2021/01/15 10:24:24;;;;;;;14.57;8.33;;;;;;;-6.94;57.93;99669.94;1737412;81;21229;-85
2021/01/15 10:26:51;;;;;;;15.97;9.87;;;;;;;-6.96;57.34;99670.49;1742730;81;21191;-87
2021/01/15 10:29:18;;;;;;;17.13;10.50;;;;;;;-7.07;57.48;99668.55;1739394;81;21168;-86
2021/01/15 10:31:54;;;;;;;19.07;10.23;;;;;;;-7.11;57.89;99673.07;1749320;81;21212;-86
2021/01/15 10:34:24;;;;;;;20.27;10.37;;;;;;;-7.12;58.03;99674.02;1720213;82;21644;-87
2021/01/15 10:36:54;;;;;;;19.97;12.23;;;;;;;-7.13;57.57;99673.63;1653903;84;21591;-86
2021/01/15 10:39:21;;;;;;;22.17;12.90;;;;;;;-7.19;57.77;99670.12;1713815;83;21180;-85
2021/01/15 10:41:51;;;;;;;19.47;12.33;;;;;;;-7.17;57.93;99676.52;1722163;83;21247;-85
2021/01/15 10:44:20;;;;;;;18.30;10.83;;;;;;;-7.19;58.42;99677.06;1723922;82;21207;-86
2021/01/15 10:46:52;;;;;;;19.87;11.00;;;;;;;-7.11;58.11;99683.91;1672090;84;21240;-85
2021/01/15 10:49:22;;;;;;;20.17;10.53;;;;;;;-7.12;57.87;99685.67;1670298;85;21206;-86
2021/01/15 10:51:54;;;;;;;20.30;11.50;;;;;;;-7.15;57.82;99672.89;1670838;84;21611;-85
2021/01/15 10:54:22;;;;;;;19.73;11.30;;;;;;;-7.17;57.84;99677.33;1680488;84;21219;-87
2021/01/15 10:56:51;;;;;;;18.97;11.47;;;;;;;-7.18;57.79;99679.54;1685002;84;21563;-86
2021/01/15 10:59:19;;;;;;;16.13;10.40;;;;;;;-7.16;57.52;99685.45;1717628;82;21216;-85
2021/01/15 11:01:49;;;;;;;20.90;10.77;;;;;;;-7.13;57.84;99685.28;1721753;82;21173;-89
2021/01/15 11:04:19;;;;;;;16.90;10.50;;;;;;;-7.06;57.78;99681.88;1709454;83;21273;-86
2021/01/15 11:06:54;;;;;;;11.70;7.70;;;;;;;-7.02;57.47;99684.66;1686365;82;21116;-87
2021/01/15 11:09:26;;;;;;;20.60;11.40;;;;;;;-7.03;56.60;99680.38;1703338;83;21149;-86
2021/01/15 11:11:56;;;;;;;20.07;9.47;;;;;;;-7.05;56.81;99680.47;1702962;83;21469;-86
2021/01/15 11:14:25;;;;;;;19.07;11.10;;;;;;;-7.05;56.77;99686.12;1714845;83;21307;-85
2021/01/15 11:16:55;;;;;;;22.17;10.73;;;;;;;-7.00;56.60;99687.98;1668479;84;21243;-85
2021/01/15 11:19:22;;;;;;;15.63;8.87;;;;;;;-6.95;56.56;99687.25;1678788;84;21228;-87
2021/01/15 11:21:52;;;;;;;18.37;10.83;;;;;;;-7.19;56.41;99636.45;1664987;85;21144;-85
2021/01/15 11:24:21;;;;;;;17.87;9.60;;;;;;;-6.89;56.46;99685.57;1710954;83;21224;-87
2021/01/15 11:27:01;;;;;;;15.57;9.77;;;;;;;-6.90;56.32;99681.30;1725814;79;21311;-87
2021/01/15 11:30:14;;;;;;;13.20;9.57;;;;;;;-6.88;56.46;99676.03;1698089;83;21198;-86
2021/01/15 11:32:42;;;;;;;14.47;8.37;;;;;;;-6.87;56.53;99675.13;1681977;83;21215;-88
2021/01/15 11:35:12;;;;;;;15.87;9.43;;;;;;;-6.83;56.33;99677.06;1711573;81;21662;-89
2021/01/15 11:37:42;;;;;;;11.83;7.27;;;;;;;-6.75;56.71;99682.13;1713909;83;21200;-86
2021/01/15 11:40:12;;;;;;;10.80;7.57;;;;;;;-6.72;57.26;99675.94;1728886;82;21220;-86
2021/01/15 11:42:41;;;;;;;12.87;8.13;;;;;;;-6.66;57.20;99680.27;1712506;83;21318;-86
2021/01/15 11:45:09;;;;;;;21.70;9.50;;;;;;;-6.62;56.93;99681.39;1720954;82;21257;-88
2021/01/15 11:47:43;;;;;;;8.17;6.00;;;;;;;-6.61;57.37;99681.30;1716130;82;21184;-86
2021/01/15 11:50:23;;;;;;;15.40;7.60;;;;;;;-6.62;56.74;99675.73;1677555;84;22373;-87
2021/01/15 11:52:54;;;;;;;10.07;6.50;;;;;;;-6.64;55.77;99675.47;1631304;86;21844;-86
2021/01/15 11:55:22;;;;;;;10.97;6.40;;;;;;;-6.76;56.34;99677.03;1686652;83;21205;-87
2021/01/15 11:57:52;;;;;;;13.27;8.30;;;;;;;-6.85;55.81;99677.16;1685350;83;21234;-86
2021/01/15 12:00:21;;;;;;;10.90;7.40;;;;;;;-6.92;56.15;99678.45;1684059;84;21217;-87
2021/01/15 12:02:48;;;;;;;17.83;8.07;;;;;;;-6.93;56.46;99670.28;1685550;84;21236;-87
2021/01/15 12:05:15;;;;;;;16.47;9.67;;;;;;;-6.85;56.67;99678.45;1669123;83;21255;-88
2021/01/15 12:08:14;;;;;;;12.17;8.27;;;;;;;-6.79;56.88;99670.77;1818104;77;23132;-87
2021/01/15 12:10:42;;;;;;;12.87;8.00;;;;;;;-6.79;57.26;99674.65;1736033;81;21210;-87